Time;durP1;ratioP1;P1;durP2;ratioP2;P2;SDS_P1;SDS_P2;PMS_P1;PMS_P2;Temp;Humidity;BMP_temperature;BMP_pressure;BME280_temperature;BME280_humidity;BME280_pressure;Samples;Min_cycle;Max_cycle;Signal;HPM_P1;HPM_P2
2023/04/29 00:00:10;;;;;;;41.42;27.88;;;10.10;99.90;;;;;;4852480;28;94859;-33
2023/04/29 00:02:35;;;;;;;44.35;27.58;;;10.10;99.90;;;;;;4842554;28;93884;-30
2023/04/29 00:05:03;;;;;;;38.33;27.00;;;10.00;99.90;;;;;;4847372;28;95564;-33
2023/04/29 00:07:31;;;;;;;46.03;27.02;;;10.00;99.90;;;;;;4846876;28;93287;-30
2023/04/29 00:09:57;;;;;;;43.17;28.27;;;9.90;99.90;;;;;;4850497;28;95222;-30
2023/04/29 00:12:23;;;;;;;45.25;28.52;;;9.90;99.90;;;;;;4842819;28;95057;-30
2023/04/29 00:14:48;;;;;;;41.35;27.10;;;9.90;99.90;;;;;;4841102;28;94652;-32
2023/04/29 00:17:15;;;;;;;41.75;28.20;;;9.90;99.90;;;;;;4842536;28;94335;-31
2023/04/29 00:19:40;;;;;;;42.15;27.23;;;9.80;99.90;;;;;;4852041;28;94778;-32
2023/04/29 00:22:06;;;;;;;39.03;27.05;;;9.80;99.90;;;;;;4840197;28;94049;-34
2023/04/29 00:24:32;;;;;;;38.50;26.55;;;9.80;99.90;;;;;;4858999;28;93323;-31
2023/04/29 00:26:58;;;;;;;42.30;27.05;;;9.80;99.90;;;;;;4862248;28;94155;-31
2023/04/29 00:29:24;;;;;;;39.58;27.98;;;9.80;99.90;;;;;;4843556;28;95841;-33
2023/04/29 00:31:49;;;;;;;40.05;28.65;;;9.70;99.90;;;;;;4842759;28;97009;-31
2023/04/29 00:34:15;;;;;;;51.92;29.92;;;9.70;99.90;;;;;;4843025;28;92260;-31
2023/04/29 00:36:41;;;;;;;44.95;29.88;;;9.70;99.90;;;;;;4855077;28;93927;-30
2023/04/29 00:39:06;;;;;;;47.08;30.73;;;9.70;99.90;;;;;;4843858;28;94334;-31
2023/04/29 00:41:32;;;;;;;46.03;31.83;;;9.70;99.90;;;;;;4843220;28;94607;-31
2023/04/29 00:43:58;;;;;;;49.35;33.13;;;9.70;99.90;;;;;;4851029;28;94645;-33
2023/04/29 00:46:23;;;;;;;41.70;31.65;;;9.70;99.90;;;;;;4849730;28;92918;-35
2023/04/29 00:48:49;;;;;;;52.47;32.63;;;9.70;99.90;;;;;;4861492;28;94678;-34
2023/04/29 00:51:16;;;;;;;47.55;31.05;;;9.70;99.90;;;;;;4860733;28;93867;-35
2023/04/29 00:53:42;;;;;;;45.28;27.88;;;9.70;99.90;;;;;;4853576;28;95346;-34
2023/04/29 00:56:09;;;;;;;52.55;32.25;;;9.70;99.90;;;;;;4854965;28;92858;-32
2023/04/29 00:58:35;;;;;;;48.85;32.00;;;9.70;99.90;;;;;;4850990;28;94697;-33
2023/04/29 01:01:02;;;;;;;51.20;33.28;;;9.70;99.90;;;;;;4846271;28;94918;-33
2023/04/29 01:03:31;;;;;;;44.20;29.75;;;9.70;99.90;;;;;;4843364;28;93761;-29
2023/04/29 01:06:10;;;;;;;40.65;29.20;;;9.60;99.90;;;;;;4845613;28;94254;-32
2023/04/29 01:08:59;;;;;;;45.33;28.17;;;9.60;99.90;;;;;;4851324;28;96267;-32
2023/04/29 01:11:38;;;;;;;43.00;27.65;;;9.60;99.90;;;;;;4842981;28;93503;-33
2023/04/29 01:14:04;;;;;;;37.10;26.35;;;9.60;99.90;;;;;;4842435;28;94755;-32
2023/04/29 01:16:46;;;;;;;39.40;28.25;;;9.60;99.90;;;;;;4842063;28;93105;-30
2023/04/29 01:19:32;;;;;;;40.85;27.25;;;9.60;99.90;;;;;;4854497;28;97241;-31
2023/04/29 01:21:57;;;;;;;35.83;25.88;;;9.60;99.90;;;;;;4860270;28;95471;-31
2023/04/29 01:24:24;;;;;;;38.03;25.13;;;9.60;99.90;;;;;;4860074;28;92984;-34
2023/04/29 01:27:01;;;;;;;42.60;26.55;;;9.60;99.90;;;;;;4860585;28;94307;-30
2023/04/29 01:29:40;;;;;;;39.65;26.60;;;9.60;99.90;;;;;;4859634;28;95119;-30
2023/04/29 01:32:12;;;;;;;34.13;25.00;;;9.50;99.90;;;;;;4860010;28;94496;-31
2023/04/29 01:34:58;;;;;;;39.13;26.33;;;9.60;99.90;;;;;;4861178;28;93305;-32
2023/04/29 01:37:37;;;;;;;43.67;26.20;;;9.50;99.90;;;;;;4859646;28;93951;-31
2023/04/29 01:40:32;;;;;;;56.30;26.55;;;9.50;99.90;;;;;;4860588;28;94487;-31
2023/04/29 01:43:03;;;;;;;52.45;27.40;;;9.40;99.90;;;;;;4840840;28;93763;-30
2023/04/29 01:45:32;;;;;;;32.35;22.33;;;9.40;99.90;;;;;;4848794;28;93057;-33
2023/04/29 01:47:59;;;;;;;41.95;25.73;;;9.40;99.90;;;;;;4860063;28;93986;-34
2023/04/29 01:50:25;;;;;;;38.47;21.65;;;9.40;99.90;;;;;;4853327;28;94449;-32
2023/04/29 01:52:51;;;;;;;34.80;23.35;;;9.40;99.90;;;;;;4842738;28;94603;-30
2023/04/29 01:55:17;;;;;;;35.83;25.20;;;9.40;99.90;;;;;;4852941;28;93783;-34
2023/04/29 01:57:43;;;;;;;32.65;24.10;;;9.40;99.90;;;;;;4843851;28;93412;-29
2023/04/29 02:00:10;;;;;;;34.25;23.67;;;9.40;99.90;;;;;;4859728;28;94297;-33
2023/04/29 02:02:35;;;;;;;36.75;24.05;;;9.40;99.90;;;;;;4860239;28;95066;-33
2023/04/29 02:05:01;;;;;;;35.72;24.13;;;9.40;99.90;;;;;;4860056;28;92619;-31
2023/04/29 02:07:26;;;;;;;32.08;21.98;;;9.40;99.90;;;;;;4859871;28;93391;-31
2023/04/29 02:09:52;;;;;;;36.70;24.10;;;9.30;99.90;;;;;;4859918;28;95800;-30
2023/04/29 02:12:18;;;;;;;31.42;21.83;;;9.30;99.90;;;;;;4858444;28;96153;-30
2023/04/29 02:14:43;;;;;;;28.05;21.30;;;9.40;99.90;;;;;;4860284;28;93321;-32
2023/04/29 02:17:09;;;;;;;38.95;24.20;;;9.30;99.90;;;;;;4859021;28;92090;-32
2023/04/29 02:19:34;;;;;;;41.17;23.52;;;9.30;99.90;;;;;;4860634;28;94986;-32
2023/04/29 02:22:00;;;;;;;31.48;22.52;;;9.30;99.90;;;;;;4860470;28;96732;-31
2023/04/29 02:24:26;;;;;;;36.45;25.70;;;9.30;99.90;;;;;;4843403;28;93451;-31
2023/04/29 02:26:52;;;;;;;28.95;21.50;;;9.30;99.90;;;;;;4842155;28;92113;-30
2023/04/29 02:29:17;;;;;;;31.02;20.42;;;9.30;99.90;;;;;;4840793;28;94823;-30
2023/04/29 02:31:43;;;;;;;38.15;22.52;;;9.30;99.90;;;;;;4852245;28;94669;-30
2023/04/29 02:34:09;;;;;;;30.83;21.13;;;9.20;99.90;;;;;;4854260;28;95648;-33
2023/04/29 02:36:34;;;;;;;36.00;22.70;;;9.20;99.90;;;;;;4851642;28;94492;-35
2023/04/29 02:39:00;;;;;;;33.83;21.65;;;9.20;99.90;;;;;;4859378;28;94786;-31
2023/04/29 02:41:26;;;;;;;35.03;21.63;;;9.20;99.90;;;;;;4859235;28;94539;-34
2023/04/29 02:43:51;;;;;;;30.90;21.77;;;9.20;99.90;;;;;;4860590;28;94783;-32
2023/04/29 02:46:17;;;;;;;32.65;21.55;;;9.30;99.90;;;;;;4858940;28;92282;-31
2023/04/29 02:48:43;;;;;;;27.60;19.90;;;9.20;99.90;;;;;;4858097;28;94391;-33
2023/04/29 02:51:09;;;;;;;25.30;19.90;;;9.20;99.90;;;;;;4858485;28;94650;-30
2023/04/29 02:53:35;;;;;;;32.40;20.67;;;9.20;99.90;;;;;;4859730;28;94833;-35
2023/04/29 02:56:00;;;;;;;26.90;19.80;;;9.20;99.90;;;;;;4859316;28;93359;-32
2023/04/29 02:58:26;;;;;;;29.10;21.25;;;9.20;99.90;;;;;;4858473;28;95263;-30
2023/04/29 03:00:52;;;;;;;30.75;20.00;;;9.20;99.90;;;;;;4859406;28;96050;-31
2023/04/29 03:03:18;;;;;;;36.47;20.75;;;9.10;99.90;;;;;;4851900;28;93850;-32
2023/04/29 03:05:43;;;;;;;31.83;20.58;;;9.20;99.90;;;;;;4840108;28;93515;-32
2023/04/29 03:08:09;;;;;;;28.52;19.30;;;9.20;99.90;;;;;;4840639;28;96147;-33
2023/04/29 03:10:35;;;;;;;30.35;22.23;;;9.20;99.90;;;;;;4840713;28;94705;-31
2023/04/29 03:13:01;;;;;;;28.80;21.80;;;9.20;99.90;;;;;;4841591;28;93729;-32
2023/04/29 03:15:26;;;;;;;34.55;22.90;;;9.20;99.90;;;;;;4840940;28;93909;-30
2023/04/29 03:17:52;;;;;;;25.33;19.65;;;9.20;99.90;;;;;;4843891;28;94654;-35
2023/04/29 03:20:18;;;;;;;30.73;21.52;;;9.20;99.90;;;;;;4854625;28;94916;-31
2023/04/29 03:22:44;;;;;;;33.72;21.70;;;9.20;99.90;;;;;;4855899;28;95143;-32
2023/04/29 03:25:09;;;;;;;32.47;20.23;;;9.20;99.90;;;;;;4859912;28;93294;-30
2023/04/29 03:27:35;;;;;;;25.63;19.73;;;9.20;99.90;;;;;;4858610;28;94594;-31
2023/04/29 03:30:01;;;;;;;33.45;21.35;;;9.10;99.90;;;;;;4859636;28;94459;-35
2023/04/29 03:32:27;;;;;;;27.80;19.58;;;9.10;99.90;;;;;;4859198;28;92214;-32
2023/04/29 03:34:53;;;;;;;34.28;20.10;;;9.10;99.90;;;;;;4859630;28;94297;-32
2023/04/29 03:37:19;;;;;;;33.63;21.10;;;9.10;99.90;;;;;;4859073;28;94676;-32
2023/04/29 03:39:45;;;;;;;35.47;22.17;;;9.10;99.90;;;;;;4859037;28;94582;-31
2023/04/29 03:42:11;;;;;;;38.88;21.23;;;9.10;99.90;;;;;;4859567;28;92339;-30
2023/04/29 03:44:36;;;;;;;34.97;20.80;;;9.10;99.90;;;;;;4859660;28;94239;-33
2023/04/29 03:47:02;;;;;;;42.88;22.35;;;9.00;99.90;;;;;;4858530;28;96012;-35
2023/04/29 03:49:27;;;;;;;32.95;19.95;;;9.00;99.90;;;;;;4859006;28;95879;-30
2023/04/29 03:51:53;;;;;;;35.15;22.48;;;9.00;99.90;;;;;;4859103;28;94913;-32
2023/04/29 03:54:19;;;;;;;30.25;21.05;;;9.00;99.90;;;;;;4859308;28;94247;-32
2023/04/29 03:56:44;;;;;;;25.67;18.00;;;9.00;99.90;;;;;;4858937;28;94922;-35
2023/04/29 03:59:10;;;;;;;31.15;18.92;;;9.00;99.90;;;;;;4860065;28;93963;-36
2023/04/29 04:01:36;;;;;;;30.17;18.70;;;9.00;99.90;;;;;;4862418;28;94878;-32
2023/04/29 04:06:50;;;;;;;28.20;18.48;;;9.00;99.90;;;;;;4859577;28;1137982;-31
2023/04/29 04:09:16;;;;;;;22.90;17.65;;;9.00;99.90;;;;;;4901009;28;93596;-34
2023/04/29 04:11:42;;;;;;;24.98;19.67;;;9.00;99.90;;;;;;4900140;28;95308;-32
2023/04/29 04:14:07;;;;;;;28.23;18.35;;;8.90;99.90;;;;;;4900482;28;92195;-35
2023/04/29 04:16:33;;;;;;;25.13;16.98;;;8.90;99.90;;;;;;4900122;28;95088;-31
2023/04/29 04:18:59;;;;;;;33.33;18.98;;;8.90;99.90;;;;;;4889325;28;93172;-35
2023/04/29 04:21:26;;;;;;;29.42;16.38;;;8.90;99.90;;;;;;4899740;28;92191;-33
2023/04/29 04:23:52;;;;;;;25.55;15.90;;;8.90;99.90;;;;;;4900560;28;94594;-30
2023/04/29 04:26:19;;;;;;;20.15;15.82;;;8.90;99.90;;;;;;4899409;28;94602;-34
2023/04/29 04:28:45;;;;;;;20.70;16.80;;;8.90;99.90;;;;;;4900833;28;94541;-33
2023/04/29 04:31:13;;;;;;;31.20;17.65;;;8.90;99.90;;;;;;4900035;28;92947;-34
2023/04/29 04:33:39;;;;;;;21.58;14.85;;;8.90;99.90;;;;;;4900091;28;92210;-32
2023/04/29 04:36:05;;;;;;;24.40;17.60;;;8.90;99.90;;;;;;4899500;28;95976;-32
2023/04/29 04:38:31;;;;;;;25.42;16.77;;;8.80;99.90;;;;;;4899843;28;96182;-33
2023/04/29 04:40:57;;;;;;;29.55;17.75;;;8.80;99.90;;;;;;4899927;28;93897;-36
2023/04/29 04:43:23;;;;;;;26.85;17.98;;;8.90;99.90;;;;;;4900191;28;94839;-31
2023/04/29 04:45:49;;;;;;;25.58;16.52;;;8.80;99.90;;;;;;4899446;28;94588;-31
2023/04/29 04:48:14;;;;;;;33.53;17.15;;;8.80;99.90;;;;;;4900198;28;94843;-35
2023/04/29 04:50:40;;;;;;;20.70;14.82;;;8.80;99.90;;;;;;4899352;28;93202;-33
2023/04/29 04:53:05;;;;;;;24.42;17.60;;;8.80;99.90;;;;;;4888294;28;92612;-35
2023/04/29 04:55:32;;;;;;;31.52;16.77;;;8.80;99.90;;;;;;4899074;28;94489;-30
2023/04/29 04:57:58;;;;;;;22.40;15.23;;;8.80;99.90;;;;;;4899614;28;94921;-32
2023/04/29 05:00:23;;;;;;;21.98;15.23;;;8.80;99.90;;;;;;4899081;28;95335;-30
2023/04/29 05:02:50;;;;;;;26.73;15.00;;;8.80;99.90;;;;;;4899526;28;94268;-32
2023/04/29 05:05:15;;;;;;;27.95;15.35;;;8.80;99.90;;;;;;4898367;28;94619;-31
2023/04/29 05:07:41;;;;;;;20.30;14.40;;;8.80;99.90;;;;;;4899847;28;94982;-31
2023/04/29 05:10:07;;;;;;;21.55;15.55;;;8.90;99.90;;;;;;4898740;28;93650;-32
2023/04/29 05:12:34;;;;;;;21.48;16.27;;;8.90;99.90;;;;;;4899868;28;94520;-33
2023/04/29 05:15:00;;;;;;;22.70;15.30;;;8.90;99.90;;;;;;4897877;28;94866;-31
2023/04/29 05:17:25;;;;;;;22.98;14.90;;;8.90;99.90;;;;;;4898821;28;95301;-33
2023/04/29 05:19:51;;;;;;;29.85;13.70;;;8.80;99.90;;;;;;4887194;28;94181;-31
2023/04/29 05:22:17;;;;;;;22.65;13.93;;;8.90;99.90;;;;;;4898836;28;92701;-35
2023/04/29 05:24:43;;;;;;;18.50;12.02;;;8.90;99.90;;;;;;4899333;28;96592;-31
2023/04/29 05:27:08;;;;;;;18.92;13.00;;;8.90;99.90;;;;;;4898882;28;96887;-31
2023/04/29 05:29:34;;;;;;;17.42;13.55;;;8.90;99.90;;;;;;4899015;28;93276;-32
2023/04/29 05:32:00;;;;;;;24.90;14.98;;;8.90;99.90;;;;;;4899552;28;93001;-30
2023/04/29 05:34:25;;;;;;;23.40;14.00;;;8.90;99.90;;;;;;4898647;28;94389;-33
2023/04/29 05:36:51;;;;;;;20.27;13.23;;;8.90;99.90;;;;;;4899424;28;94317;-33
2023/04/29 05:39:17;;;;;;;21.63;13.05;;;8.90;99.90;;;;;;4898436;28;93367;-35
2023/04/29 05:41:43;;;;;;;22.08;12.90;;;8.90;99.90;;;;;;4899395;28;93702;-34
2023/04/29 05:44:08;;;;;;;16.48;12.10;;;8.90;99.90;;;;;;4898963;28;94689;-33
2023/04/29 05:46:34;;;;;;;24.27;13.23;;;9.00;99.90;;;;;;4898799;28;94017;-33
2023/04/29 05:49:00;;;;;;;25.92;11.70;;;9.00;99.90;;;;;;4899427;28;95495;-32
2023/04/29 05:51:27;;;;;;;21.35;13.85;;;9.00;99.90;;;;;;4898857;28;92574;-29
2023/04/29 05:53:53;;;;;;;16.30;11.45;;;9.00;99.90;;;;;;4897645;28;94916;-31
2023/04/29 05:56:18;;;;;;;18.58;12.15;;;9.00;99.90;;;;;;4898552;28;94658;-31
2023/04/29 05:58:44;;;;;;;23.02;14.05;;;9.00;99.90;;;;;;4898934;28;93704;-30
2023/04/29 06:01:10;;;;;;;24.48;13.13;;;9.00;99.90;;;;;;4899053;28;93201;-29
2023/04/29 06:03:36;;;;;;;18.38;12.75;;;9.10;99.90;;;;;;4898687;28;93715;-31
2023/04/29 06:06:01;;;;;;;18.35;13.38;;;9.00;99.90;;;;;;4898601;28;94346;-35
2023/04/29 06:08:27;;;;;;;22.33;13.98;;;9.00;99.90;;;;;;4899141;28;94316;-32
2023/04/29 06:10:53;;;;;;;24.63;13.55;;;9.00;99.90;;;;;;4898773;28;92038;-31
2023/04/29 06:13:19;;;;;;;18.75;12.80;;;9.10;99.90;;;;;;4898239;28;95412;-32
2023/04/29 06:15:44;;;;;;;18.55;14.07;;;9.20;99.90;;;;;;4897791;28;95903;-32
2023/04/29 06:18:10;;;;;;;20.45;13.73;;;9.20;99.90;;;;;;4893580;28;93363;-31
2023/04/29 06:20:36;;;;;;;19.67;12.73;;;9.20;99.90;;;;;;4891458;28;93138;-31
2023/04/29 06:23:02;;;;;;;18.95;12.38;;;9.20;99.90;;;;;;4897806;28;94562;-35
2023/04/29 06:25:27;;;;;;;28.35;13.65;;;9.20;99.90;;;;;;4899100;28;94084;-32
2023/04/29 06:27:53;;;;;;;22.15;13.85;;;9.20;99.90;;;;;;4898006;28;95131;-30
2023/04/29 06:30:18;;;;;;;19.80;14.88;;;9.30;99.90;;;;;;4897510;28;93860;-30
2023/04/29 06:32:44;;;;;;;23.15;14.68;;;9.30;99.90;;;;;;4898125;28;94855;-30
2023/04/29 06:35:10;;;;;;;24.75;16.00;;;9.30;99.90;;;;;;4898625;28;94276;-35
2023/04/29 06:37:35;;;;;;;25.25;17.10;;;9.30;99.90;;;;;;4897832;28;94459;-32
2023/04/29 06:40:01;;;;;;;20.10;15.65;;;9.40;99.90;;;;;;4897998;28;94454;-35
2023/04/29 06:42:27;;;;;;;22.52;16.20;;;9.50;99.90;;;;;;4897259;28;94632;-30
2023/04/29 06:44:53;;;;;;;21.90;15.30;;;9.50;99.90;;;;;;4898200;28;94784;-34
2023/04/29 06:47:19;;;;;;;22.42;15.70;;;9.50;99.90;;;;;;4897810;28;92905;-31
2023/04/29 06:49:44;;;;;;;24.73;19.45;;;9.60;99.90;;;;;;4893147;28;93893;-35
2023/04/29 06:52:10;;;;;;;27.33;15.63;;;9.60;99.90;;;;;;4895321;28;94785;-29
2023/04/29 06:54:36;;;;;;;25.40;16.98;;;9.60;99.90;;;;;;4899009;28;94289;-30
2023/04/29 06:57:01;;;;;;;21.52;16.67;;;9.70;99.90;;;;;;4897945;28;93767;-31
2023/04/29 06:59:27;;;;;;;28.33;16.30;;;9.80;99.90;;;;;;4896236;28;93508;-30
2023/04/29 07:01:52;;;;;;;25.23;15.45;;;9.90;99.90;;;;;;4879296;28;94516;-31
2023/04/29 07:04:18;;;;;;;26.88;17.52;;;10.00;99.90;;;;;;4889548;28;95916;-35
2023/04/29 07:06:45;;;;;;;23.73;15.68;;;10.00;99.90;;;;;;4895337;28;93664;-33
2023/04/29 07:09:15;;;;;;;23.73;15.15;;;10.10;99.90;;;;;;4895762;28;93452;-29
2023/04/29 07:11:40;;;;;;;21.15;15.93;;;10.20;99.90;;;;;;4895185;28;93483;-33
2023/04/29 07:14:06;;;;;;;25.50;16.17;;;10.40;99.90;;;;;;4895804;28;94670;-33
2023/04/29 07:16:32;;;;;;;20.70;14.05;;;10.70;99.90;;;;;;4895657;28;94132;-31
2023/04/29 07:18:58;;;;;;;18.77;13.77;;;10.80;99.90;;;;;;4884793;28;93047;-31
2023/04/29 07:21:24;;;;;;;15.82;12.00;;;10.80;99.90;;;;;;4885056;28;94772;-34
2023/04/29 07:23:50;;;;;;;20.80;12.95;;;10.90;99.90;;;;;;4892006;28;94595;-31
2023/04/29 07:26:17;;;;;;;21.63;12.27;;;11.00;99.90;;;;;;4895825;28;95703;-34
2023/04/29 07:28:43;;;;;;;16.23;12.85;;;11.00;99.90;;;;;;4887805;28;94465;-35
2023/04/29 07:31:10;;;;;;;14.35;10.85;;;11.30;99.90;;;;;;4885573;28;95803;-32
2023/04/29 07:33:36;;;;;;;14.77;11.30;;;11.40;99.90;;;;;;4895228;28;93737;-33
2023/04/29 07:36:02;;;;;;;16.70;11.50;;;11.60;99.90;;;;;;4896026;28;92907;-32
2023/04/29 07:38:28;;;;;;;21.23;13.00;;;11.60;99.90;;;;;;4883981;28;93200;-33
2023/04/29 07:40:54;;;;;;;14.85;9.40;;;11.70;99.90;;;;;;4895493;28;94459;-31
2023/04/29 07:43:20;;;;;;;16.38;11.85;;;11.90;99.90;;;;;;4895402;28;94945;-32
2023/04/29 07:45:46;;;;;;;16.00;11.27;;;12.10;99.90;;;;;;4884056;28;94329;-34
2023/04/29 07:48:12;;;;;;;18.17;11.15;;;12.10;99.90;;;;;;4880062;28;93513;-33
2023/04/29 07:50:38;;;;;;;12.90;10.35;;;12.00;99.90;;;;;;4893741;28;94983;-32
2023/04/29 07:53:04;;;;;;;10.32;9.20;;;11.90;99.90;;;;;;4895350;28;95584;-32
2023/04/29 07:55:30;;;;;;;18.08;11.52;;;12.00;99.90;;;;;;4895051;28;92992;-32
2023/04/29 07:57:56;;;;;;;14.15;10.73;;;12.20;99.90;;;;;;4894978;28;92184;-31
2023/04/29 08:00:22;;;;;;;16.40;10.50;;;12.50;99.90;;;;;;4894925;28;95045;-31
2023/04/29 08:02:51;;;;;;;15.65;10.57;;;12.90;99.90;;;;;;4894428;28;94633;-33
2023/04/29 08:05:19;;;;;;;13.50;8.88;;;13.00;99.90;;;;;;4885258;28;94728;-33
2023/04/29 08:07:45;;;;;;;15.47;10.87;;;12.90;99.90;;;;;;4896036;28;92674;-32
2023/04/29 08:10:10;;;;;;;15.30;11.27;;;12.90;99.90;;;;;;4895245;28;94755;-31
2023/04/29 08:12:36;;;;;;;15.63;10.55;;;13.00;99.90;;;;;;4892585;28;94560;-33
2023/04/29 08:15:02;;;;;;;13.20;9.95;;;13.00;99.90;;;;;;4895206;28;93619;-32
2023/04/29 08:17:27;;;;;;;11.27;8.75;;;12.80;99.90;;;;;;4894937;28;95010;-34
2023/04/29 08:19:53;;;;;;;13.02;8.23;;;12.80;99.90;;;;;;4883280;28;95573;-31
2023/04/29 08:22:18;;;;;;;12.50;9.73;;;12.80;99.90;;;;;;4894765;28;94518;-33
2023/04/29 08:24:44;;;;;;;12.60;10.45;;;13.20;99.90;;;;;;4895697;28;92979;-34
2023/04/29 08:27:10;;;;;;;11.63;9.15;;;13.40;99.90;;;;;;4894983;28;94024;-32
2023/04/29 08:29:36;;;;;;;11.45;8.38;;;13.30;99.90;;;;;;4894874;28;94795;-29
2023/04/29 08:32:02;;;;;;;12.27;9.00;;;13.50;99.90;;;;;;4896052;28;92742;-32
2023/04/29 08:34:27;;;;;;;15.18;10.55;;;13.70;99.90;;;;;;4895215;28;94596;-33
2023/04/29 08:36:53;;;;;;;20.25;9.60;;;13.50;99.90;;;;;;4901600;28;93643;-32
2023/04/29 08:39:18;;;;;;;11.77;9.80;;;13.80;99.90;;;;;;4887361;28;95737;-34
2023/04/29 08:41:48;;;;;;;14.13;9.15;;;13.90;99.90;;;;;;4894275;28;95327;-33
2023/04/29 08:44:15;;;;;;;11.35;9.10;;;14.20;99.90;;;;;;4894940;28;93080;-35
2023/04/29 08:46:41;;;;;;;14.73;8.88;;;14.30;99.90;;;;;;4898258;28;94353;-32
2023/04/29 08:49:07;;;;;;;10.68;9.23;;;14.20;99.90;;;;;;4898236;28;96815;-34
2023/04/29 08:51:33;;;;;;;9.80;8.45;;;14.00;99.90;;;;;;4897940;28;94181;-33
2023/04/29 08:53:59;;;;;;;10.85;8.52;;;14.20;99.90;;;;;;4898205;28;94429;-30
2023/04/29 08:56:26;;;;;;;10.13;9.10;;;14.20;99.90;;;;;;4897783;28;93355;-34
2023/04/29 08:58:53;;;;;;;14.73;8.73;;;14.40;99.90;;;;;;4897414;28;94727;-32
2023/04/29 09:01:20;;;;;;;9.20;8.03;;;14.30;99.90;;;;;;4898140;28;94185;-33
2023/04/29 09:04:34;;;;;;;12.70;9.82;;;14.40;99.90;;;;;;4897655;28;93362;-30
2023/04/29 09:07:00;;;;;;;11.07;9.45;;;14.40;99.90;;;;;;4895499;28;95015;-32
2023/04/29 09:09:27;;;;;;;9.98;8.98;;;14.40;99.90;;;;;;4897544;28;95152;-32
2023/04/29 09:11:54;;;;;;;12.52;8.95;;;14.60;99.90;;;;;;4897679;28;94280;-34
2023/04/29 09:14:20;;;;;;;11.48;8.93;;;14.60;99.90;;;;;;4891454;28;93484;-29
2023/04/29 09:16:46;;;;;;;14.25;9.88;;;15.10;99.90;;;;;;4897163;28;93573;-30
2023/04/29 09:19:29;;;;;;;11.80;10.10;;;15.40;99.90;;;;;;4884670;28;94108;-34
2023/04/29 09:21:55;;;;;;;11.38;9.68;;;15.40;99.90;;;;;;4897384;28;94216;-33
2023/04/29 09:24:26;;;;;;;14.90;9.82;;;15.30;99.90;;;;;;4898027;28;92595;-32
2023/04/29 09:26:52;;;;;;;15.98;10.10;;;15.20;99.90;;;;;;4897623;28;93711;-30
2023/04/29 09:29:17;;;;;;;10.95;9.60;;;15.00;99.90;;;;;;4895595;28;95698;-32
2023/04/29 09:31:44;;;;;;;11.88;9.57;;;15.20;99.90;;;;;;4897471;28;94902;-33
2023/04/29 09:34:10;;;;;;;9.82;8.85;;;15.20;99.90;;;;;;4897068;28;94566;-32
2023/04/29 09:36:39;;;;;;;12.05;8.50;;;15.40;99.90;;;;;;4897524;28;93584;-31
2023/04/29 09:39:12;;;;;;;14.13;10.30;;;15.40;99.90;;;;;;4896689;28;93527;-35
2023/04/29 09:41:53;;;;;;;11.63;9.05;;;15.60;99.90;;;;;;4896558;28;96200;-34
2023/04/29 09:44:21;;;;;;;10.85;9.68;;;15.80;99.90;;;;;;4897583;28;92215;-32
2023/04/29 09:47:03;;;;;;;15.27;11.18;;;15.30;99.90;;;;;;4897506;28;93945;-32
2023/04/29 09:49:30;;;;;;;12.82;9.93;;;15.00;99.90;;;;;;4897084;28;94813;-32
2023/04/29 09:52:00;;;;;;;10.07;9.00;;;15.10;99.90;;;;;;4884341;28;94266;-33
2023/04/29 09:54:28;;;;;;;10.88;9.52;;;15.30;99.90;;;;;;4897246;28;93952;-31
2023/04/29 09:56:56;;;;;;;9.88;8.93;;;15.50;99.90;;;;;;4896077;28;92252;-31
2023/04/29 09:59:23;;;;;;;13.35;8.90;;;14.90;99.90;;;;;;4896735;28;93989;-29
2023/04/29 10:01:50;;;;;;;13.68;10.57;;;14.90;99.90;;;;;;4896824;28;94464;-35
2023/04/29 10:04:18;;;;;;;10.60;8.10;;;15.10;99.90;;;;;;4896192;28;92948;-34
2023/04/29 10:06:45;;;;;;;10.88;8.35;;;15.20;99.90;;;;;;4896860;28;94507;-31
2023/04/29 10:09:15;;;;;;;16.25;8.95;;;15.20;97.90;;;;;;4896563;28;94958;-33
2023/04/29 10:11:43;;;;;;;10.38;9.27;;;15.30;99.30;;;;;;4896805;28;94785;-34
2023/04/29 10:14:12;;;;;;;10.50;8.47;;;15.00;97.00;;;;;;4896751;28;92316;-35
2023/04/29 10:16:48;;;;;;;10.65;9.35;;;15.40;99.90;;;;;;4894970;28;93487;-30
2023/04/29 10:19:33;;;;;;;13.82;9.88;;;15.30;99.90;;;;;;4883103;28;95809;-33
2023/04/29 10:22:04;;;;;;;12.68;10.50;;;15.30;99.90;;;;;;4896377;28;95535;-31
2023/04/29 10:24:31;;;;;;;9.73;7.30;;;15.30;99.20;;;;;;4896284;28;94903;-31
2023/04/29 10:26:58;;;;;;;12.13;10.82;;;15.40;99.90;;;;;;4896005;28;94219;-32
2023/04/29 10:29:27;;;;;;;11.18;10.07;;;15.30;99.90;;;;;;4895178;28;93217;-35
2023/04/29 10:31:54;;;;;;;15.50;10.55;;;15.50;99.90;;;;;;4896165;28;94483;-32
2023/04/29 10:34:21;;;;;;;14.95;10.07;;;15.30;99.90;;;;;;4896344;28;94446;-32
2023/04/29 10:36:48;;;;;;;10.98;9.82;;;15.20;99.90;;;;;;4896046;28;91725;-34
2023/04/29 10:39:25;;;;;;;14.07;9.65;;;15.20;99.90;;;;;;4909254;28;95531;-35
2023/04/29 10:41:52;;;;;;;12.77;10.15;;;15.40;99.90;;;;;;4896854;28;94741;-30
2023/04/29 10:44:18;;;;;;;13.73;9.30;;;15.30;99.90;;;;;;4895684;28;94474;-32
2023/04/29 10:46:43;;;;;;;13.15;10.57;;;15.20;99.90;;;;;;4896245;28;93100;-31
2023/04/29 10:49:10;;;;;;;10.80;9.43;;;15.20;99.90;;;;;;4895614;28;94282;-32
2023/04/29 10:51:43;;;;;;;12.43;9.85;;;15.20;99.90;;;;;;4895659;28;94326;-30
2023/04/29 10:54:17;;;;;;;13.82;10.13;;;15.20;99.90;;;;;;4896434;28;94550;-35
2023/04/29 10:56:48;;;;;;;15.40;10.20;;;15.30;99.90;;;;;;4894632;28;92174;-33
2023/04/29 10:59:18;;;;;;;11.70;9.95;;;15.40;99.90;;;;;;4894873;28;94928;-33
2023/04/29 11:01:52;;;;;;;13.68;9.57;;;15.80;99.90;;;;;;4896701;28;94476;-33
2023/04/29 11:04:21;;;;;;;14.10;9.93;;;15.80;99.90;;;;;;4897263;28;93135;-33
2023/04/29 11:06:54;;;;;;;12.75;9.50;;;15.90;99.90;;;;;;4895692;28;92711;-31
2023/04/29 11:09:27;;;;;;;9.88;8.63;;;15.80;99.90;;;;;;4893668;28;95890;-32
2023/04/29 11:12:04;;;;;;;11.75;8.98;;;15.90;99.90;;;;;;4893025;28;95555;-30
2023/04/29 11:14:37;;;;;;;10.70;7.65;;;15.90;99.90;;;;;;4888344;28;93536;-31
2023/04/29 11:17:07;;;;;;;12.73;8.70;;;15.90;99.90;;;;;;4895789;28;93031;-32
2023/04/29 11:19:48;;;;;;;10.32;8.70;;;15.90;99.90;;;;;;4882929;28;95070;-34
2023/04/29 11:22:16;;;;;;;12.77;9.32;;;15.70;99.90;;;;;;4883814;28;93730;-33
2023/04/29 11:24:48;;;;;;;9.32;7.85;;;15.80;90.30;;;;;;4891843;28;93256;-34
2023/04/29 11:27:15;;;;;;;9.48;8.48;;;15.90;97.40;;;;;;4895359;28;93482;-35
2023/04/29 11:29:41;;;;;;;10.82;8.25;;;16.10;99.90;;;;;;4895749;28;94287;-33
2023/04/29 11:32:07;;;;;;;13.40;9.20;;;16.10;96.00;;;;;;4895229;28;94667;-32
2023/04/29 11:34:32;;;;;;;10.00;8.07;;;15.80;81.20;;;;;;4895438;28;95494;-35
2023/04/29 11:36:59;;;;;;;9.20;7.10;;;15.90;89.40;;;;;;4895411;28;92895;-33
2023/04/29 11:39:26;;;;;;;9.25;6.78;;;15.60;76.00;;;;;;4895324;28;94465;-33
2023/04/29 11:41:51;;;;;;;8.25;7.35;;;15.70;74.60;;;;;;4896255;28;92556;-35
2023/04/29 11:44:21;;;;;;;9.80;7.07;;;15.50;76.10;;;;;;4895709;28;93211;-34
2023/04/29 11:46:48;;;;;;;9.20;7.75;;;15.50;81.30;;;;;;4895609;28;94734;-30
2023/04/29 11:49:14;;;;;;;8.30;7.40;;;15.60;92.70;;;;;;4895032;28;94253;-31
2023/04/29 11:51:40;;;;;;;16.77;7.13;;;15.40;79.80;;;;;;4896176;28;94627;-31
2023/04/29 11:54:06;;;;;;;7.90;6.53;;;15.40;83.50;;;;;;4895532;28;93209;-33
2023/04/29 11:56:31;;;;;;;9.05;7.50;;;15.70;93.70;;;;;;4895359;28;94955;-35
2023/04/29 11:58:57;;;;;;;9.18;7.43;;;15.80;99.90;;;;;;4894705;28;96088;-33
2023/04/29 12:01:25;;;;;;;9.48;6.75;;;15.90;98.20;;;;;;4894726;28;95762;-32
2023/04/29 12:03:56;;;;;;;14.63;7.65;;;15.70;90.00;;;;;;4896028;28;92780;-32
2023/04/29 12:06:25;;;;;;;8.35;6.60;;;15.70;79.20;;;;;;4894958;28;93001;-32
2023/04/29 12:08:51;;;;;;;9.45;7.30;;;15.70;91.10;;;;;;4894625;28;94730;-31
2023/04/29 12:11:17;;;;;;;9.02;7.28;;;15.60;92.00;;;;;;4894924;28;94440;-34
2023/04/29 12:13:42;;;;;;;9.02;6.35;;;15.60;86.70;;;;;;4895213;28;93004;-33
2023/04/29 12:16:09;;;;;;;12.95;6.38;;;15.70;93.30;;;;;;4895548;28;91957;-30
2023/04/29 12:18:35;;;;;;;9.05;6.55;;;15.70;99.90;;;;;;4886663;28;94807;-32
2023/04/29 12:21:01;;;;;;;8.60;7.63;;;15.40;81.30;;;;;;4892408;28;94030;-34
2023/04/29 12:23:27;;;;;;;10.23;7.20;;;15.40;87.00;;;;;;4898690;28;95173;-34
2023/04/29 12:25:56;;;;;;;7.88;6.35;;;15.60;83.20;;;;;;4898111;28;93228;-32
2023/04/29 12:28:22;;;;;;;6.72;5.60;;;15.60;92.50;;;;;;4897982;28;94766;-32
2023/04/29 12:30:50;;;;;;;9.07;6.68;;;15.80;99.90;;;;;;4897660;28;94694;-36
2023/04/29 12:33:26;;;;;;;9.48;6.78;;;15.70;91.80;;;;;;4899385;28;93911;-33
2023/04/29 12:35:55;;;;;;;8.98;6.22;;;15.60;85.10;;;;;;4898550;28;95076;-31
2023/04/29 12:38:26;;;;;;;8.50;6.82;;;15.70;88.40;;;;;;4897868;28;95074;-31